Time;durP1;ratioP1;P1;durP2;ratioP2;P2;SDS_P1;SDS_P2;PMS_P1;PMS_P2;Temp;Humidity;BMP_temperature;BMP_pressure;BME280_temperature;BME280_humidity;BME280_pressure;Samples;Min_cycle;Max_cycle;Signal;HPM_P1;HPM_P2
2021/01/11 00:02:09;;;;;;;18.70;12.57;;;;;;;-0.30;69.19;96840.34;5094411;28;20168;-57
2021/01/11 00:04:34;;;;;;;20.00;13.30;;;;;;;-0.36;69.76;96845.25;5095150;28;20481;-61
2021/01/11 00:07:00;;;;;;;19.70;13.40;;;;;;;-0.27;68.66;96846.97;5109355;28;20189;-57
2021/01/11 00:09:25;;;;;;;16.30;11.53;;;;;;;-0.27;69.64;96845.22;5101117;28;20698;-61
2021/01/11 00:11:51;;;;;;;17.67;13.50;;;;;;;-0.27;68.55;96846.97;5111197;28;20183;-61
2021/01/11 00:14:16;;;;;;;19.60;12.40;;;;;;;-0.31;69.40;96841.28;5114246;28;20201;-61
2021/01/11 00:16:41;;;;;;;16.50;12.07;;;;;;;-0.25;67.89;96848.44;5114208;28;20263;-57
2021/01/11 00:19:07;;;;;;;19.20;12.87;;;;;;;-0.27;68.65;96855.53;5112069;28;20266;-61
2021/01/11 00:21:32;;;;;;;17.43;12.27;;;;;;;-0.31;68.50;96849.03;5114327;28;20176;-57
2021/01/11 00:23:57;;;;;;;17.77;12.50;;;;;;;-0.31;68.63;96840.50;5112858;28;20225;-61
2021/01/11 00:26:23;;;;;;;17.50;11.20;;;;;;;-0.40;69.02;96839.59;5101264;28;20184;-57
2021/01/11 00:28:49;;;;;;;14.63;11.63;;;;;;;-0.44;68.96;96848.59;5103081;28;20191;-61
2021/01/11 00:31:25;;;;;;;16.20;11.73;;;;;;;-0.49;70.01;96842.25;5112153;28;20555;-57
2021/01/11 00:33:52;;;;;;;15.43;11.10;;;;;;;-0.43;69.06;96833.91;5114474;28;20203;-56
2021/01/11 00:36:18;;;;;;;16.43;12.10;;;;;;;-0.41;69.34;96835.41;5113564;28;20410;-58
2021/01/11 00:38:44;;;;;;;17.10;11.23;;;;;;;-0.48;69.04;96831.78;5114027;28;20403;-57
2021/01/11 00:41:17;;;;;;;16.07;10.83;;;;;;;-0.47;69.55;96838.56;5113637;28;20440;-57
2021/01/11 00:43:43;;;;;;;16.40;12.20;;;;;;;-0.43;68.72;96831.31;5112084;28;20923;-57
2021/01/11 00:46:08;;;;;;;19.97;11.80;;;;;;;-0.39;68.98;96830.91;5112187;28;20422;-56
2021/01/11 00:48:33;;;;;;;16.20;11.90;;;;;;;-0.58;70.17;96835.38;5103383;28;20690;-61
2021/01/11 00:50:59;;;;;;;17.67;11.30;;;;;;;-0.43;68.77;96829.56;5093406;28;20203;-56
2021/01/11 00:53:24;;;;;;;17.77;11.70;;;;;;;-0.42;67.59;96827.81;5093343;28;20200;-61
2021/01/11 00:55:50;;;;;;;20.50;11.83;;;;;;;-0.46;67.44;96829.06;5092998;28;20256;-56
2021/01/11 00:58:15;;;;;;;19.77;12.53;;;;;;;-0.53;66.29;96836.56;5092834;28;20169;-56
2021/01/11 01:00:40;;;;;;;16.67;10.80;;;;;;;-0.63;67.29;96833.22;5094159;28;20335;-61
2021/01/11 01:03:06;;;;;;;16.87;11.90;;;;;;;-0.74;67.65;96825.69;5094313;28;20173;-60
2021/01/11 01:05:31;;;;;;;14.87;11.77;;;;;;;-0.83;68.21;96839.44;5093209;28;20172;-56
2021/01/11 01:07:56;;;;;;;17.37;11.00;;;;;;;-0.78;67.97;96839.81;5092840;28;20169;-61
2021/01/11 01:10:22;;;;;;;16.77;11.37;;;;;;;-0.80;67.98;96839.19;5093022;28;20241;-61
2021/01/11 01:12:47;;;;;;;17.30;12.50;;;;;;;-0.79;nan;96837.38;5093182;28;20187;-56
2021/01/11 01:15:13;;;;;;;16.83;11.10;;;;;;;-0.83;68.72;96841.22;5094090;28;20185;-57
2021/01/11 01:17:38;;;;;;;12.27;9.90;;;;;;;-0.84;69.00;96834.44;5098588;28;20521;-61
2021/01/11 01:20:06;;;;;;;16.10;11.83;;;;;;;-0.95;69.89;96832.03;5113323;28;20195;-56
2021/01/11 01:22:31;;;;;;;16.90;11.50;;;;;;;-1.01;69.86;96838.56;5113479;28;20253;-61
2021/01/11 01:24:57;;;;;;;17.00;10.83;;;;;;;-0.88;69.15;96833.91;5113425;28;20457;-56
2021/01/11 01:27:22;;;;;;;14.83;10.90;;;;;;;-0.80;68.45;96825.47;5111213;28;20263;-61
2021/01/11 01:29:48;;;;;;;16.23;10.70;;;;;;;-0.80;68.53;96831.44;5113138;28;20246;-56
2021/01/11 01:32:13;;;;;;;16.73;10.33;;;;;;;-0.84;69.05;96830.09;5108698;28;20185;-56
2021/01/11 01:34:38;;;;;;;15.80;10.80;;;;;;;-0.87;69.33;96834.72;5101649;28;20737;-56
2021/01/11 01:37:04;;;;;;;17.00;10.97;;;;;;;-0.79;68.83;96842.53;5113108;28;20241;-56
2021/01/11 01:39:29;;;;;;;15.30;11.43;;;;;;;-0.77;67.78;96846.63;5113521;28;20190;-56
2021/01/11 01:41:54;;;;;;;15.87;10.27;;;;;;;-0.77;67.78;96841.47;5111905;28;22100;-61
2021/01/11 01:44:20;;;;;;;18.80;11.37;;;;;;;-0.77;67.01;96843.22;5113247;28;20502;-57
2021/01/11 01:46:45;;;;;;;15.87;10.70;;;;;;;-0.78;66.65;96844.19;5113009;28;20198;-61
2021/01/11 01:49:11;;;;;;;15.13;10.70;;;;;;;-0.91;67.15;96844.53;5094536;28;20234;-60
2021/01/11 01:51:39;;;;;;;17.23;10.90;;;;;;;-1.01;67.56;96842.94;5092896;28;20193;-60
2021/01/11 01:54:04;;;;;;;19.97;11.67;;;;;;;-1.12;67.18;96847.31;5095937;28;20201;-56
2021/01/11 01:56:30;;;;;;;18.17;12.30;;;;;;;-1.32;66.89;96840.59;5101608;28;20835;-60
2021/01/11 01:58:57;;;;;;;13.37;9.43;;;;;;;-1.43;67.46;96843.34;5096025;28;20186;-60
2021/01/11 02:01:23;;;;;;;15.03;9.80;;;;;;;-1.53;67.71;96841.75;5113345;28;20238;-60
2021/01/11 02:03:48;;;;;;;15.50;10.43;;;;;;;-1.63;67.70;96846.13;5112036;28;20425;-60
2021/01/11 02:06:14;;;;;;;14.77;10.00;;;;;;;-1.74;68.14;96843.69;5095804;28;20187;-56
2021/01/11 02:08:55;;;;;;;13.80;10.00;;;;;;;-1.74;68.69;96843.69;5094524;28;20171;-56
2021/01/11 02:11:30;;;;;;;15.43;10.07;;;;;;;-1.76;68.74;96838.69;5112023;28;20619;-56
2021/01/11 02:14:23;;;;;;;17.37;10.07;;;;;;;-1.72;68.80;96839.22;5116661;28;20442;-56
2021/01/11 02:17:02;;;;;;;16.30;10.60;;;;;;;-1.72;69.13;96832.28;5116525;28;20781;-56
2021/01/11 02:19:56;;;;;;;16.17;10.60;;;;;;;-1.79;70.52;96833.00;5114652;28;20532;-60
2021/01/11 02:22:36;;;;;;;13.67;9.47;;;;;;;-1.69;70.01;96832.03;5116623;28;20413;-56
2021/01/11 02:25:20;;;;;;;16.40;10.50;;;;;;;-1.65;69.95;96832.56;5114873;28;20508;-60
2021/01/11 02:27:59;;;;;;;13.80;9.63;;;;;;;-1.61;69.95;96829.56;5116117;28;20393;-56
2021/01/11 02:30:40;;;;;;;13.40;9.77;;;;;;;-1.61;69.94;96821.84;5115899;28;20853;-60
2021/01/11 02:33:09;;;;;;;15.00;10.57;;;;;;;-1.56;69.99;96817.06;5114739;28;20452;-60
2021/01/11 02:35:53;;;;;;;15.37;10.60;;;;;;;-1.49;69.03;96819.91;5116399;28;20409;-60
2021/01/11 02:38:23;;;;;;;13.83;9.40;;;;;;;-1.44;68.57;96815.16;5114135;28;20423;-60
2021/01/11 02:40:49;;;;;;;17.33;10.60;;;;;;;-1.49;69.18;96822.50;5116250;28;20433;-60
2021/01/11 02:43:14;;;;;;;15.70;10.33;;;;;;;-1.41;69.34;96817.44;5116576;28;20403;-56
2021/01/11 02:45:40;;;;;;;16.47;11.27;;;;;;;-1.44;69.16;96817.72;5116329;28;20495;-56
2021/01/11 02:48:24;;;;;;;14.17;10.03;;;;;;;-1.35;68.52;96819.47;5111045;28;20174;-56
2021/01/11 02:51:01;;;;;;;15.67;9.47;;;;;;;-1.42;69.03;96816.66;5096648;28;20200;-60
2021/01/11 02:54:18;;;;;;;15.40;10.70;;;;;;;-1.36;68.71;96813.47;5113138;28;20487;-56
2021/01/11 02:56:49;;;;;;;14.23;9.27;;;;;;;-1.47;69.20;96807.72;5070857;28;20438;-60
2021/01/11 02:59:31;;;;;;;13.87;10.20;;;;;;;-1.52;69.66;96797.81;5092747;28;20858;-60
2021/01/11 03:02:07;;;;;;;16.53;10.27;;;;;;;-1.48;70.48;96809.47;5095579;28;20754;-60
2021/01/11 03:04:33;;;;;;;15.43;10.70;;;;;;;-1.35;70.16;96806.56;5095595;28;20412;-56
2021/01/11 03:07:00;;;;;;;18.63;10.37;;;;;;;-1.30;69.00;96812.09;5102615;28;20432;-60
2021/01/11 03:09:31;;;;;;;13.90;9.93;;;;;;;-1.24;69.48;96809.81;5104406;28;20782;-57
2021/01/11 03:11:57;;;;;;;16.60;11.37;;;;;;;-1.15;68.31;96816.69;5095231;28;20880;-56
2021/01/11 03:14:26;;;;;;;16.30;10.70;;;;;;;-1.15;68.76;96826.97;5095066;28;20541;-56
2021/01/11 03:16:52;;;;;;;17.80;11.30;;;;;;;-1.17;68.53;96821.16;5094948;28;20808;-60
2021/01/11 03:19:17;;;;;;;15.57;10.97;;;;;;;-1.14;67.72;96820.03;5095734;28;20485;-60
2021/01/11 03:21:43;;;;;;;16.90;11.17;;;;;;;-1.13;67.24;96817.34;5097453;28;20685;-57
2021/01/11 03:24:09;;;;;;;16.47;10.83;;;;;;;-1.27;67.96;96811.84;5115563;28;20622;-60
2021/01/11 03:26:35;;;;;;;19.13;11.57;;;;;;;-1.32;68.41;96801.94;5104677;28;20172;-60
2021/01/11 03:29:01;;;;;;;14.30;10.90;;;;;;;-1.24;67.69;96806.41;5095009;28;20894;-56
2021/01/11 03:31:27;;;;;;;18.87;11.27;;;;;;;-1.26;67.05;96811.69;5107553;28;20474;-56
2021/01/11 03:33:52;;;;;;;16.10;10.10;;;;;;;-1.36;67.61;96808.34;5112980;28;20447;-56
2021/01/11 03:36:18;;;;;;;16.37;10.40;;;;;;;-1.32;67.34;96812.25;5094626;28;20261;-60
2021/01/11 03:38:44;;;;;;;15.63;10.50;;;;;;;-1.35;67.48;96812.56;5095220;28;20178;-60
2021/01/11 03:41:10;;;;;;;16.40;10.73;;;;;;;-1.36;66.52;96813.47;5093237;28;20248;-61
2021/01/11 03:43:40;;;;;;;17.27;10.77;;;;;;;-1.43;66.82;96809.06;5094634;28;20166;-60
2021/01/11 03:46:06;;;;;;;15.43;11.07;;;;;;;-1.48;67.08;96813.78;5099552;28;20434;-56
2021/01/11 03:48:32;;;;;;;18.73;10.67;;;;;;;-1.58;66.84;96820.75;5114679;28;20471;-57
2021/01/11 03:50:59;;;;;;;15.57;9.43;;;;;;;-1.64;67.79;96818.72;5113077;28;20468;-57
2021/01/11 03:53:24;;;;;;;13.77;9.50;;;;;;;-1.70;67.99;96816.72;5114684;28;20474;-60
2021/01/11 03:55:50;;;;;;;17.53;10.17;;;;;;;-1.70;67.31;96807.22;5114746;28;20412;-60
2021/01/11 03:58:15;;;;;;;14.50;9.00;;;;;;;-1.71;66.91;96804.78;5114461;28;20625;-57
2021/01/11 04:00:40;;;;;;;14.53;9.13;;;;;;;-1.71;67.22;96803.03;5112965;28;20197;-56
2021/01/11 04:03:06;;;;;;;13.80;9.20;;;;;;;-1.70;67.03;96799.50;5105567;28;20510;-56
2021/01/11 04:05:31;;;;;;;16.40;10.10;;;;;;;-1.76;67.25;96804.41;5095375;28;20188;-56
2021/01/11 04:07:57;;;;;;;13.40;9.67;;;;;;;-1.72;66.79;96803.19;5093803;28;20310;-57
2021/01/11 04:10:23;;;;;;;13.33;9.40;;;;;;;-1.74;66.74;96810.22;5094145;28;20278;-56
2021/01/11 04:12:49;;;;;;;16.40;9.60;;;;;;;-1.79;66.98;96808.06;5094021;28;20623;-56
2021/01/11 04:15:15;;;;;;;14.57;8.90;;;;;;;-1.80;66.90;96814.16;5093960;28;20492;-56
2021/01/11 04:17:40;;;;;;;14.90;9.17;;;;;;;-1.81;66.69;96811.72;5097471;28;20179;-57
2021/01/11 04:20:06;;;;;;;12.97;9.00;;;;;;;-1.83;66.99;96811.06;5093967;28;20435;-56
2021/01/11 04:22:32;;;;;;;13.30;9.40;;;;;;;-1.90;66.77;96810.78;5112384;28;20257;-56
2021/01/11 04:24:57;;;;;;;13.40;9.23;;;;;;;-1.96;66.51;96813.91;5112156;27;20834;-60
2021/01/11 04:27:23;;;;;;;18.83;10.30;;;;;;;-2.03;67.09;96818.00;5113879;28;20217;-61
2021/01/11 04:29:48;;;;;;;15.20;9.47;;;;;;;-2.10;66.82;96824.63;5113759;28;20197;-57
2021/01/11 04:32:13;;;;;;;16.73;10.73;;;;;;;-2.09;67.07;96823.69;5111576;28;20180;-57
2021/01/11 04:34:39;;;;;;;19.00;10.83;;;;;;;-2.21;67.69;96828.13;5107636;28;20205;-60
2021/01/11 04:37:07;;;;;;;12.83;8.77;;;;;;;-2.30;68.96;96825.59;5100721;28;20183;-60
2021/01/11 04:39:34;;;;;;;13.53;9.07;;;;;;;-2.37;69.86;96827.88;5093524;28;20281;-57
2021/01/11 04:42:02;;;;;;;12.93;8.90;;;;;;;-2.41;70.00;96818.00;5093890;28;20396;-56
2021/01/11 04:44:28;;;;;;;16.60;8.73;;;;;;;-2.28;69.44;96828.81;5093835;28;20941;-57
2021/01/11 04:46:55;;;;;;;13.80;9.17;;;;;;;-2.25;69.80;96829.34;5094339;28;20450;-60
2021/01/11 04:49:20;;;;;;;14.83;10.27;;;;;;;-2.26;69.80;96829.50;5095986;28;20430;-61
2021/01/11 04:51:46;;;;;;;14.63;9.37;;;;;;;-2.24;69.50;96825.03;5093716;28;20404;-56
2021/01/11 04:54:16;;;;;;;14.23;9.83;;;;;;;-2.11;69.50;96823.81;5093353;28;20548;-60
2021/01/11 04:56:46;;;;;;;15.47;10.67;;;;;;;-2.02;68.74;96824.75;5093117;28;20182;-56
2021/01/11 04:59:17;;;;;;;15.37;10.60;;;;;;;-1.96;67.63;96823.41;5093470;28;20409;-57
2021/01/11 05:01:43;;;;;;;20.27;11.33;;;;;;;-1.94;67.56;96824.91;5098335;28;20420;-57
2021/01/11 05:04:13;;;;;;;12.67;9.43;;;;;;;-1.96;67.77;96829.38;5093265;28;20554;-57
2021/01/11 05:06:44;;;;;;;17.90;10.43;;;;;;;-2.00;67.80;96824.63;5093286;28;20187;-57
2021/01/11 05:09:13;;;;;;;18.60;11.17;;;;;;;-1.98;67.35;96813.25;5093521;28;20404;-57
2021/01/11 05:11:38;;;;;;;16.60;10.53;;;;;;;-1.98;67.37;96818.38;5093661;28;20405;-56
2021/01/11 05:14:04;;;;;;;19.17;11.33;;;;;;;-1.94;67.61;96812.03;5093570;28;20455;-57
2021/01/11 05:16:29;;;;;;;15.33;9.73;;;;;;;-2.01;68.60;96810.94;5102363;28;20224;-56
2021/01/11 05:19:00;;;;;;;15.47;10.27;;;;;;;-1.95;68.68;96814.72;5113802;28;20193;-60
2021/01/11 05:21:40;;;;;;;15.40;10.07;;;;;;;-2.02;69.36;96806.75;5113577;28;20640;-60
2021/01/11 05:24:38;;;;;;;22.90;10.80;;;;;;;-2.46;72.37;96815.81;5113632;28;20400;-60
2021/01/11 05:27:08;;;;;;;16.87;10.60;;;;;;;-2.19;71.99;96813.38;5111572;28;20465;-60
2021/01/11 05:29:35;;;;;;;16.63;10.97;;;;;;;-2.04;71.82;96816.34;5113129;28;20455;-60
2021/01/11 05:32:03;;;;;;;19.37;10.90;;;;;;;-1.94;71.68;96819.75;5097895;28;20421;-60
2021/01/11 05:34:53;;;;;;;17.50;10.53;;;;;;;-1.89;71.44;96824.47;5112590;28;20458;-57
2021/01/11 05:37:42;;;;;;;17.33;10.40;;;;;;;-1.88;70.94;96826.13;5113277;28;20890;-57
2021/01/11 05:40:15;;;;;;;19.20;11.00;;;;;;;-1.79;70.53;96814.97;5111620;28;20443;-57
2021/01/11 05:42:42;;;;;;;17.80;11.57;;;;;;;-1.76;70.30;96817.28;5115771;28;20400;-60
2021/01/11 05:45:12;;;;;;;18.77;11.40;;;;;;;-1.76;70.65;96812.94;5117417;28;20488;-57
2021/01/11 05:47:55;;;;;;;19.83;11.80;;;;;;;-1.85;71.45;96811.19;5110318;28;20934;-56
2021/01/11 05:50:21;;;;;;;17.90;9.90;;;;;;;-1.83;71.43;96824.72;5096721;28;20438;-56
2021/01/11 05:52:47;;;;;;;19.90;10.73;;;;;;;-1.73;71.12;96822.94;5096915;28;20502;-60
2021/01/11 05:55:33;;;;;;;18.17;12.30;;;;;;;-1.69;71.12;96823.50;5097807;28;20194;-61
2021/01/11 05:58:05;;;;;;;15.27;10.10;;;;;;;-1.73;70.46;96828.09;5096339;28;20175;-61
2021/01/11 06:00:32;;;;;;;18.07;10.83;;;;;;;-1.77;70.11;96833.66;5096723;28;20434;-57
2021/01/11 06:02:59;;;;;;;17.37;10.90;;;;;;;-1.69;69.82;96833.78;5096587;28;20415;-60
2021/01/11 06:05:26;;;;;;;19.17;11.00;;;;;;;-1.55;69.70;96830.78;5095265;28;20847;-61
2021/01/11 06:07:52;;;;;;;18.80;12.10;;;;;;;-1.59;70.96;96827.66;5106419;28;20503;-57
2021/01/11 06:10:18;;;;;;;15.80;10.30;;;;;;;-1.61;70.85;96826.19;5115066;28;20531;-60
2021/01/11 06:12:45;;;;;;;17.60;12.07;;;;;;;-1.60;71.00;96822.66;5116910;28;20199;-61
2021/01/11 06:15:21;;;;;;;18.77;12.40;;;;;;;-1.58;72.03;96828.47;5116771;28;20421;-60
2021/01/11 06:17:49;;;;;;;19.10;12.47;;;;;;;-1.48;71.16;96821.53;5116382;28;20801;-60
2021/01/11 06:20:17;;;;;;;22.30;12.47;;;;;;;-1.51;71.56;96826.97;5116615;28;20446;-57
2021/01/11 06:22:45;;;;;;;18.03;11.70;;;;;;;-1.66;72.48;96830.94;5106119;28;20439;-61
2021/01/11 06:25:20;;;;;;;19.20;12.47;;;;;;;-1.80;72.80;96824.47;5096366;28;20410;-60
2021/01/11 06:28:01;;;;;;;19.10;11.60;;;;;;;-1.94;73.50;96826.66;5095772;28;20411;-57
2021/01/11 06:30:38;;;;;;;19.13;12.50;;;;;;;-2.13;74.16;96818.00;5095829;28;20951;-57
2021/01/11 06:33:04;;;;;;;25.53;14.60;;;;;;;-2.05;74.70;96814.75;5096473;28;20441;-57
2021/01/11 06:35:30;;;;;;;19.53;12.50;;;;;;;-2.22;74.40;96816.25;5095950;28;20808;-57
2021/01/11 06:38:22;;;;;;;19.87;12.17;;;;;;;-2.18;74.62;96821.91;5110693;28;20287;-60
2021/01/11 06:41:15;;;;;;;18.40;12.17;;;;;;;-1.86;74.06;96808.75;5096035;28;20464;-56
2021/01/11 06:43:42;;;;;;;19.93;12.00;;;;;;;-1.75;72.51;96816.31;5094379;28;20433;-60
2021/01/11 06:46:09;;;;;;;20.90;12.20;;;;;;;-1.64;72.45;96811.00;5095960;28;20439;-60
2021/01/11 06:48:34;;;;;;;18.70;12.57;;;;;;;-1.60;71.69;96820.06;5106779;28;20429;-57
2021/01/11 06:51:09;;;;;;;20.80;13.47;;;;;;;-1.55;70.81;96813.56;5105451;28;20449;-61
2021/01/11 06:53:35;;;;;;;19.50;12.90;;;;;;;-1.47;70.05;96811.06;5094904;28;20207;-60
2021/01/11 06:56:08;;;;;;;18.03;12.00;;;;;;;-1.50;69.94;96813.13;5095703;28;20788;-61
2021/01/11 06:58:35;;;;;;;18.43;12.30;;;;;;;-1.49;70.62;96815.59;5110730;28;20424;-57
2021/01/11 07:01:08;;;;;;;19.07;12.10;;;;;;;-1.57;71.59;96819.78;5115783;28;20435;-57
2021/01/11 07:03:44;;;;;;;21.80;13.13;;;;;;;-1.54;71.50;96819.53;5102824;28;20447;-56
2021/01/11 07:06:38;;;;;;;19.53;12.70;;;;;;;-1.55;71.69;96823.88;5095633;28;20408;-57
2021/01/11 07:09:12;;;;;;;16.47;11.90;;;;;;;-1.59;71.75;96829.41;5095569;28;20405;-60
2021/01/11 07:11:40;;;;;;;18.60;11.90;;;;;;;-1.50;70.65;96826.81;5095201;28;20429;-56
2021/01/11 07:14:06;;;;;;;18.77;11.60;;;;;;;-1.43;69.31;96827.09;5095218;28;20472;-57
2021/01/11 07:16:46;;;;;;;19.53;11.10;;;;;;;-1.45;68.79;96826.41;5095012;28;20960;-60
2021/01/11 07:19:13;;;;;;;18.57;11.07;;;;;;;-1.52;68.72;96825.34;5113299;28;20421;-60
2021/01/11 07:21:40;;;;;;;19.13;10.70;;;;;;;-1.60;69.96;96836.34;5115637;28;20417;-57
2021/01/11 07:24:06;;;;;;;17.30;11.53;;;;;;;-2.00;72.78;96829.75;5095319;28;20904;-57
2021/01/11 07:26:35;;;;;;;18.27;12.47;;;;;;;-1.94;73.43;96831.78;5094579;28;20410;-56
2021/01/11 07:29:05;;;;;;;20.77;11.30;;;;;;;-1.89;73.33;96827.03;5095134;28;20436;-60
2021/01/11 07:31:42;;;;;;;18.73;12.47;;;;;;;-1.86;73.69;96837.88;5095832;28;20498;-60
2021/01/11 07:34:10;;;;;;;20.20;12.90;;;;;;;-1.69;73.01;96836.38;5095324;28;20791;-60
2021/01/11 07:36:39;;;;;;;16.80;11.17;;;;;;;-1.58;72.54;96833.63;5094963;28;20444;-60
2021/01/11 07:39:27;;;;;;;18.43;12.40;;;;;;;-1.55;71.57;96839.31;5099716;28;20778;-57
2021/01/11 07:42:03;;;;;;;22.00;13.17;;;;;;;-1.55;71.54;96841.06;5115241;28;20493;-60
2021/01/11 07:44:31;;;;;;;20.10;13.00;;;;;;;-1.49;71.27;96841.34;5114981;28;20409;-60
2021/01/11 07:47:05;;;;;;;22.90;15.27;;;;;;;-1.34;71.02;96841.72;5112913;28;20439;-56
2021/01/11 07:49:33;;;;;;;21.63;13.93;;;;;;;-1.13;70.47;96842.31;5115072;28;20513;-60
2021/01/11 07:52:03;;;;;;;23.53;14.20;;;;;;;-1.06;70.18;96841.59;5112753;28;20551;-56
2021/01/11 07:54:29;;;;;;;18.23;12.97;;;;;;;-1.00;69.30;96847.13;5094297;28;20454;-57
2021/01/11 07:56:54;;;;;;;21.70;14.47;;;;;;;-1.09;70.11;96841.06;5094147;28;20408;-56
2021/01/11 07:59:19;;;;;;;22.70;14.63;;;;;;;-1.02;70.02;96844.69;5095408;28;20404;-56
2021/01/11 08:01:50;;;;;;;22.77;15.60;;;;;;;-0.98;69.43;96845.22;5094351;28;20181;-60
2021/01/11 08:04:17;;;;;;;19.90;12.83;;;;;;;-1.08;70.25;96858.16;5093033;28;20177;-57
2021/01/11 08:06:48;;;;;;;20.47;12.53;;;;;;;-0.93;70.21;96861.91;5095357;28;20925;-57
2021/01/11 08:09:14;;;;;;;19.40;13.63;;;;;;;-0.85;69.33;96872.28;5114688;28;20417;-61
2021/01/11 08:11:41;;;;;;;19.60;12.97;;;;;;;-0.84;69.41;96873.94;5114565;28;20419;-60
2021/01/11 08:14:07;;;;;;;19.77;13.90;;;;;;;-0.87;69.89;96876.78;5112784;28;20453;-56
2021/01/11 08:16:34;;;;;;;18.37;13.10;;;;;;;-0.77;70.38;96874.16;5114072;28;20406;-57
2021/01/11 08:19:04;;;;;;;18.90;12.80;;;;;;;-0.75;69.38;96875.66;5112720;28;20415;-61
2021/01/11 08:21:30;;;;;;;22.57;14.00;;;;;;;-0.65;69.82;96883.34;5112102;28;20440;-57
2021/01/11 08:24:05;;;;;;;17.97;12.13;;;;;;;-0.78;69.31;96886.22;5094132;28;20396;-57
2021/01/11 08:26:32;;;;;;;19.67;12.60;;;;;;;-0.83;69.52;96888.44;5093738;28;20172;-61
2021/01/11 08:28:58;;;;;;;19.97;12.00;;;;;;;-1.09;70.56;96885.69;5095950;28;20434;-57
2021/01/11 08:31:24;;;;;;;19.63;12.93;;;;;;;-1.15;71.10;96873.38;5093500;28;20802;-60
2021/01/11 08:33:50;;;;;;;18.30;11.97;;;;;;;-0.91;70.75;96874.63;5098911;28;20203;-55
2021/01/11 08:36:20;;;;;;;18.20;12.03;;;;;;;-1.03;70.44;96865.47;5100715;28;20439;-61
2021/01/11 08:39:12;;;;;;;18.13;11.30;;;;;;;-1.33;72.32;96872.47;5103962;28;20426;-57
2021/01/11 08:41:49;;;;;;;18.50;11.87;;;;;;;-1.27;72.28;96877.06;5098081;28;20560;-62
2021/01/11 08:44:31;;;;;;;17.67;12.53;;;;;;;-1.30;72.52;96879.91;5106246;28;20422;-62
2021/01/11 08:47:01;;;;;;;15.13;11.17;;;;;;;-1.08;72.28;96868.47;5113818;28;20413;-56
2021/01/11 08:49:26;;;;;;;22.47;12.87;;;;;;;-0.98;71.55;96864.09;5114270;28;20436;-56
2021/01/11 08:51:52;;;;;;;20.40;12.37;;;;;;;-0.86;70.89;96867.28;5113912;28;20896;-56
2021/01/11 08:54:29;;;;;;;18.10;12.00;;;;;;;-0.79;70.76;96863.19;5113824;28;20457;-62
2021/01/11 08:56:55;;;;;;;16.10;11.00;;;;;;;-0.90;71.22;96860.78;5113560;28;20206;-62
2021/01/11 08:59:21;;;;;;;18.33;12.03;;;;;;;-1.43;72.53;96865.72;5100384;28;20778;-62
2021/01/11 09:01:47;;;;;;;15.47;11.13;;;;;;;-1.65;73.78;96871.19;5093586;28;20921;-61
2021/01/11 09:04:31;;;;;;;21.00;14.20;;;;;;;-1.74;74.46;96866.88;5090718;28;20411;-61
2021/01/11 09:07:04;;;;;;;17.90;11.37;;;;;;;-1.59;73.90;96862.91;5094256;28;20184;-60
2021/01/11 09:09:30;;;;;;;19.43;11.73;;;;;;;-1.81;75.85;96850.34;5099732;28;20538;-61
2021/01/11 09:12:04;;;;;;;20.07;11.90;;;;;;;-2.04;76.50;96851.56;5110240;28;20444;-57
2021/01/11 09:14:31;;;;;;;19.90;11.67;;;;;;;-1.89;75.70;96860.50;5110033;28;20453;-59
2021/01/11 09:17:29;;;;;;;18.03;10.97;;;;;;;-2.07;75.69;96871.47;5110348;28;21221;-57
2021/01/11 09:19:59;;;;;;;14.80;10.77;;;;;;;-1.63;74.14;96870.09;5112116;28;20470;-61
2021/01/11 09:22:40;;;;;;;17.40;11.20;;;;;;;-1.48;73.45;96873.03;5112440;28;20429;-62
2021/01/11 09:25:10;;;;;;;17.70;10.80;;;;;;;-1.68;75.59;96877.41;5112849;28;21271;-56
2021/01/11 09:27:38;;;;;;;17.77;11.07;;;;;;;-0.73;71.48;96886.66;5113285;28;20830;-59
2021/01/11 09:30:08;;;;;;;19.23;11.90;;;;;;;-0.18;69.71;96895.13;5100058;28;20511;-60
2021/01/11 09:32:33;;;;;;;18.53;13.20;;;;;;;0.56;67.08;96895.66;5092321;28;20419;-62
2021/01/11 09:34:59;;;;;;;18.70;13.10;;;;;;;1.60;63.59;96903.97;5093352;28;20796;-62
2021/01/11 09:37:25;;;;;;;15.07;10.90;;;;;;;1.88;60.12;96897.56;5102762;28;20173;-63
2021/01/11 09:39:50;;;;;;;18.67;11.90;;;;;;;1.97;58.95;96890.63;5111612;28;20205;-58
2021/01/11 09:42:16;;;;;;;15.40;10.87;;;;;;;2.36;58.19;96880.44;5113971;28;20173;-57
2021/01/11 09:44:43;;;;;;;16.63;11.97;;;;;;;2.19;59.21;96881.44;5113803;28;20174;-58
2021/01/11 09:47:08;;;;;;;17.20;11.20;;;;;;;2.31;58.00;96872.34;5113457;28;20227;-58
2021/01/11 09:49:34;;;;;;;15.43;11.30;;;;;;;2.43;58.39;96871.09;5113626;28;20563;-62
2021/01/11 09:52:00;;;;;;;15.90;11.50;;;;;;;2.52;57.78;96876.06;5111881;28;20419;-58
2021/01/11 09:54:25;;;;;;;15.43;11.97;;;;;;;2.34;57.90;96878.03;5093925;28;20201;-57
2021/01/11 09:56:51;;;;;;;16.07;11.13;;;;;;;2.82;57.08;96874.59;5092825;28;20259;-57
2021/01/11 09:59:16;;;;;;;14.63;12.07;;;;;;;2.94;56.73;96871.50;5094681;28;20205;-60
2021/01/11 10:01:46;;;;;;;15.27;11.67;;;;;;;3.53;56.42;96872.78;5104948;28;20650;-64
2021/01/11 10:04:13;;;;;;;12.40;10.50;;;;;;;4.09;54.12;96869.84;5098476;28;20252;-56
2021/01/11 10:06:44;;;;;;;14.03;11.03;;;;;;;5.06;51.51;96862.03;5103064;28;20845;-55
2021/01/11 10:09:11;;;;;;;13.60;9.63;;;;;;;4.50;49.90;96870.34;5092968;28;20408;-55
2021/01/11 10:11:37;;;;;;;14.60;10.40;;;;;;;3.33;53.29;96868.97;5092927;28;20433;-55
2021/01/11 10:14:03;;;;;;;16.67;11.77;;;;;;;2.86;54.90;96876.69;5092811;28;20489;-56
2021/01/11 10:16:29;;;;;;;12.03;9.63;;;;;;;2.74;55.63;96880.59;5092052;28;20421;-54
2021/01/11 10:18:54;;;;;;;13.17;10.70;;;;;;;2.36;56.04;96876.09;5105755;28;20557;-59
2021/01/11 10:21:20;;;;;;;15.03;10.17;;;;;;;1.92;58.59;96870.38;5101670;28;20243;-60
2021/01/11 10:23:45;;;;;;;16.60;10.40;;;;;;;1.66;60.04;96876.63;5093669;28;20175;-62
2021/01/11 10:26:21;;;;;;;14.87;10.63;;;;;;;2.03;59.45;96870.06;5096215;28;20220;-59
2021/01/11 10:28:49;;;;;;;13.77;10.60;;;;;;;2.28;59.84;96859.72;5094938;28;20180;-60
2021/01/11 10:31:15;;;;;;;14.27;10.27;;;;;;;2.21;58.48;96856.97;5102366;28;21028;-61
2021/01/11 10:33:41;;;;;;;13.83;10.00;;;;;;;2.26;59.20;96853.91;5103882;28;20545;-53
2021/01/11 10:36:06;;;;;;;13.00;8.93;;;;;;;1.29;60.51;96858.09;5109124;28;20511;-54
2021/01/11 10:38:32;;;;;;;14.80;11.17;;;;;;;1.55;61.23;96851.84;5111123;28;20234;-59
2021/01/11 10:40:57;;;;;;;16.00;10.70;;;;;;;2.00;60.61;96854.03;5116210;28;20710;-54
2021/01/11 10:43:22;;;;;;;13.40;10.10;;;;;;;2.02;60.55;96857.28;5114681;28;20184;-55
2021/01/11 10:45:48;;;;;;;15.60;10.87;;;;;;;2.20;59.23;96850.16;5108781;28;20274;-54
2021/01/11 10:48:14;;;;;;;10.50;8.43;;;;;;;1.97;58.47;96846.59;5115714;28;20176;-54
2021/01/11 10:50:39;;;;;;;19.00;11.77;;;;;;;1.35;61.71;96837.56;5102552;28;20787;-58
2021/01/11 10:53:04;;;;;;;16.53;11.37;;;;;;;1.43;62.61;96834.97;5114559;28;20204;-58
2021/01/11 10:55:30;;;;;;;15.17;12.33;;;;;;;1.65;62.65;96823.25;5115188;28;20651;-54
2021/01/11 10:57:55;;;;;;;21.27;14.53;;;;;;;2.00;61.33;96826.34;5104711;28;20565;-55
2021/01/11 11:00:21;;;;;;;20.90;14.13;;;;;;;1.95;61.30;96820.84;5107303;28;20197;-57
2021/01/11 11:02:47;;;;;;;17.60;12.50;;;;;;;1.99;62.68;96809.19;5097000;28;20174;-58
2021/01/11 11:05:13;;;;;;;15.57;12.00;;;;;;;2.35;60.89;96806.25;5113688;27;20417;-58
2021/01/11 11:07:38;;;;;;;15.43;10.47;;;;;;;2.10;58.99;96810.66;5095339;28;20424;-59
2021/01/11 11:10:06;;;;;;;11.73;9.00;;;;;;;1.96;57.69;96809.50;5100421;28;20199;-59
2021/01/11 11:12:32;;;;;;;11.97;9.33;;;;;;;2.29;56.93;96806.91;5115676;28;20218;-55
2021/01/11 11:14:59;;;;;;;14.90;10.90;;;;;;;2.44;56.84;96808.69;5113975;28;20491;-54
2021/01/11 11:17:31;;;;;;;12.07;8.73;;;;;;;2.27;57.08;96803.66;5108724;28;20439;-54
2021/01/11 11:19:57;;;;;;;14.30;10.07;;;;;;;2.24;56.69;96804.81;5093260;28;20478;-56
2021/01/11 11:22:22;;;;;;;11.83;9.00;;;;;;;2.08;56.97;96805.63;5095412;28;20547;-58
2021/01/11 11:24:48;;;;;;;14.00;10.10;;;;;;;2.17;57.73;96803.84;5103192;28;20970;-57
2021/01/11 11:27:13;;;;;;;12.07;9.50;;;;;;;3.20;56.38;96808.16;5099056;28;20186;-56
2021/01/11 11:29:40;;;;;;;11.87;8.63;;;;;;;3.55;52.89;96800.66;5105610;28;20189;-57